Time,TemperatureF,DewpointF,PressureIn,WindDirection,WindDirectionDegrees,WindSpeedMPH,WindSpeedGustMPH,Humidity,HourlyPrecipIn,Conditions,Clouds,dailyrainin,SoftwareType,DateUTC
2013-03-04 00:00:00,22.4,18.6,30.04,WNW,290,4.0,8.0,85,0.00,,,0.00,HR-IXPWINDi_r2_v1.2.,2013-03-04 05:00:00,
2013-03-04 00:05:00,22.4,18.6,30.04,WNW,300,6.0,9.0,85,0.00,,,0.00,HR-IXPWINDi_r2_v1.2.,2013-03-04 05:05:00,
2013-03-04 00:10:00,22.4,18.6,30.04,WNW,296,6.0,10.0,85,0.00,,,0.00,HR-IXPWINDi_r2_v1.2.,2013-03-04 05:10:00,
2013-03-04 00:15:00,22.3,18.5,30.04,WNW,293,7.0,10.0,85,0.00,,,0.00,HR-IXPWINDi_r2_v1.2.,2013-03-04 05:15:00,
2013-03-04 00:20:00,22.4,18.6,30.04,WNW,300,5.0,10.0,85,0.00,,,0.00,HR-IXPWINDi_r2_v1.2.,2013-03-04 05:20:00,
2013-03-04 00:26:00,22.3,18.5,30.04,WNW,298,5.0,10.0,85,0.00,,,0.00,HR-IXPWINDi_r2_v1.2.,2013-03-04 05:26:00,
2013-03-04 00:31:00,22.3,18.5,30.04,WNW,299,4.0,9.0,85,0.00,,,0.00,HR-IXPWINDi_r2_v1.2.,2013-03-04 05:31:00,
2013-03-04 00:36:00,22.3,18.5,30.04,WNW,300,5.0,7.0,85,0.00,,,0.00,HR-IXPWINDi_r2_v1.2.,2013-03-04 05:36:00,
2013-03-04 00:41:00,22.2,18.4,30.04,NW,306,9.0,9.0,85,0.00,,,0.00,HR-IXPWINDi_r2_v1.2.,2013-03-04 05:41:00,
2013-03-04 00:46:00,22.3,18.8,30.04,NW,309,5.0,9.0,86,0.00,,,0.00,HR-IXPWINDi_r2_v1.2.,2013-03-04 05:46:00,
2013-03-04 00:51:00,22.2,18.7,30.04,NW,309,5.0,9.0,86,0.00,,,0.00,HR-IXPWINDi_r2_v1.2.,2013-03-04 05:51:00,
2013-03-04 00:57:00,22.2,18.7,30.05,NW,309,5.0,8.0,86,0.00,,,0.00,HR-IXPWINDi_r2_v1.2.,2013-03-04 05:57:00,
2013-03-04 01:02:00,22.2,18.7,30.05,NW,310,3.0,8.0,86,0.00,,,0.00,HR-IXPWINDi_r2_v1.2.,2013-03-04 06:02:00,
2013-03-04 01:07:00,22.2,18.7,30.05,NW,305,5.0,10.0,86,0.00,,,0.00,HR-IXPWINDi_r2_v1.2.,2013-03-04 06:07:00,
2013-03-04 01:12:00,22.2,18.4,30.05,North,351,6.0,10.0,85,0.00,,,0.00,HR-IXPWINDi_r2_v1.2.,2013-03-04 06:12:00,
2013-03-04 01:17:00,22.1,18.3,30.06,North,350,6.0,10.0,85,0.00,,,0.00,HR-IXPWINDi_r2_v1.2.,2013-03-04 06:17:00,
2013-03-04 01:23:00,22.0,17.6,30.05,NW,322,10.0,10.0,83,0.00,,,0.00,HR-IXPWINDi_r2_v1.2.,2013-03-04 06:23:00,
2013-03-04 01:28:00,21.8,17.5,30.06,NNW,339,8.0,11.0,83,0.00,,,0.00,HR-IXPWINDi_r2_v1.2.,2013-03-04 06:28:00,
2013-03-04 01:33:00,21.7,17.1,30.06,NW,321,5.0,16.0,82,0.00,,,0.00,HR-IXPWINDi_r2_v1.2.,2013-03-04 06:33:00,
2013-03-04 01:38:00,21.5,17.2,30.06,NW,304,4.0,16.0,83,0.00,,,0.00,HR-IXPWINDi_r2_v1.2.,2013-03-04 06:38:00,
2013-03-04 01:43:00,21.3,17.0,30.06,NNW,329,6.0,9.0,83,0.00,,,0.00,HR-IXPWINDi_r2_v1.2.,2013-03-04 06:43:00,
2013-03-04 01:49:00,21.1,16.8,30.06,NW,315,4.0,12.0,83,0.00,,,0.00,HR-IXPWINDi_r2_v1.2.,2013-03-04 06:49:00,
2013-03-04 01:54:00,21.0,16.7,30.06,NW,309,4.0,12.0,83,0.00,,,0.00,HR-IXPWINDi_r2_v1.2.,2013-03-04 06:54:00,
2013-03-04 01:59:00,20.9,16.6,30.06,NW,307,5.0,8.0,83,0.00,,,0.00,HR-IXPWINDi_r2_v1.2.,2013-03-04 06:59:00,
2013-03-04 02:05:00,20.8,16.5,30.07,NW,315,4.0,8.0,83,0.00,,,0.00,HR-IXPWINDi_r2_v1.2.,2013-03-04 07:05:00,
2013-03-04 02:10:00,20.8,16.8,30.07,NW,311,10.0,10.0,84,0.00,,,0.00,HR-IXPWINDi_r2_v1.2.,2013-03-04 07:10:00,
2013-03-04 02:15:00,20.8,16.8,30.06,NW,314,6.0,10.0,84,0.00,,,0.00,HR-IXPWINDi_r2_v1.2.,2013-03-04 07:15:00,
2013-03-04 02:20:00,20.8,16.8,30.07,NW,317,6.0,10.0,84,0.00,,,0.00,HR-IXPWINDi_r2_v1.2.,2013-03-04 07:20:00,
2013-03-04 02:25:00,20.8,16.8,30.06,WNW,298,4.0,8.0,84,0.00,,,0.00,HR-IXPWINDi_r2_v1.2.,2013-03-04 07:25:00,
2013-03-04 02:30:00,20.8,16.8,30.07,WNW,303,5.0,9.0,84,0.00,,,0.00,HR-IXPWINDi_r2_v1.2.,2013-03-04 07:30:00,
2013-03-04 02:36:00,20.9,16.9,30.07,NW,306,4.0,9.0,84,0.00,,,0.00,HR-IXPWINDi_r2_v1.2.,2013-03-04 07:36:00,
2013-03-04 02:41:00,20.9,16.9,30.07,NW,310,3.0,7.0,84,0.00,,,0.00,HR-IXPWINDi_r2_v1.2.,2013-03-04 07:41:00,
2013-03-04 02:46:00,20.9,16.9,30.07,NW,305,4.0,7.0,84,0.00,,,0.00,HR-IXPWINDi_r2_v1.2.,2013-03-04 07:46:00,
2013-03-04 02:51:00,20.9,16.9,30.07,NNW,347,7.0,7.0,84,0.00,,,0.00,HR-IXPWINDi_r2_v1.2.,2013-03-04 07:51:00,
2013-03-04 02:56:00,21.0,17.0,30.07,NW,314,3.0,7.0,84,0.00,,,0.00,HR-IXPWINDi_r2_v1.2.,2013-03-04 07:56:00,
2013-03-04 03:01:00,21.0,17.0,30.08,NW,312,5.0,7.0,84,0.00,,,0.00,HR-IXPWINDi_r2_v1.2.,2013-03-04 08:01:00,
2013-03-04 03:07:00,20.9,16.9,30.08,NW,312,4.0,7.0,84,0.00,,,0.00,HR-IXPWINDi_r2_v1.2.,2013-03-04 08:07:00,
2013-03-04 03:12:00,20.9,17.1,30.08,NW,313,2.0,6.0,85,0.00,,,0.00,HR-IXPWINDi_r2_v1.2.,2013-03-04 08:12:00,
2013-03-04 03:17:00,20.9,19.0,30.08,NW,313,3.0,6.0,92,0.00,,,0.00,HR-IXPWINDi_r2_v1.2.,2013-03-04 08:17:00,
2013-03-04 03:22:00,20.8,17.0,30.08,NW,310,3.0,7.0,85,0.00,,,0.00,HR-IXPWINDi_r2_v1.2.,2013-03-04 08:22:00,
2013-03-04 03:27:00,20.8,17.0,30.08,NW,310,2.0,7.0,85,0.00,,,0.00,HR-IXPWINDi_r2_v1.2.,2013-03-04 08:27:00,
2013-03-04 03:32:00,20.8,17.0,30.08,NW,310,2.0,5.0,85,0.00,,,0.00,HR-IXPWINDi_r2_v1.2.,2013-03-04 08:32:00,
2013-03-04 03:37:00,20.8,17.0,30.08,NW,310,3.0,5.0,85,0.00,,,0.00,HR-IXPWINDi_r2_v1.2.,2013-03-04 08:37:00,
2013-03-04 03:43:00,20.7,17.2,30.08,NW,309,3.0,6.0,86,0.00,,,0.00,HR-IXPWINDi_r2_v1.2.,2013-03-04 08:43:00,
2013-03-04 03:48:00,20.8,17.3,30.08,NW,309,3.0,6.0,86,0.00,,,0.00,HR-IXPWINDi_r2_v1.2.,2013-03-04 08:48:00,
2013-03-04 03:53:00,20.8,17.3,30.08,NW,309,4.0,5.0,86,0.00,,,0.00,HR-IXPWINDi_r2_v1.2.,2013-03-04 08:53:00,
2013-03-04 03:58:00,20.8,17.3,30.08,NW,309,4.0,6.0,86,0.00,,,0.00,HR-IXPWINDi_r2_v1.2.,2013-03-04 08:58:00,
2013-03-04 04:03:00,20.8,17.3,30.08,NW,309,3.0,6.0,86,0.00,,,0.00,HR-IXPWINDi_r2_v1.2.,2013-03-04 09:03:00,
2013-03-04 04:08:00,20.8,17.3,30.08,NW,309,3.0,5.0,86,0.00,,,0.00,HR-IXPWINDi_r2_v1.2.,2013-03-04 09:08:00,
2013-03-04 04:13:00,20.8,17.3,30.08,NW,309,3.0,5.0,86,0.00,,,0.00,HR-IXPWINDi_r2_v1.2.,2013-03-04 09:13:00,
2013-03-04 04:18:00,20.8,17.3,30.08,NW,309,2.0,4.0,86,0.00,,,0.00,HR-IXPWINDi_r2_v1.2.,2013-03-04 09:18:00,
2013-03-04 04:24:00,20.8,17.3,30.08,NW,309,2.0,4.0,86,0.00,,,0.00,HR-IXPWINDi_r2_v1.2.,2013-03-04 09:24:00,
2013-03-04 04:29:00,20.8,17.3,30.08,NW,309,2.0,4.0,86,0.00,,,0.00,HR-IXPWINDi_r2_v1.2.,2013-03-04 09:29:00,
2013-03-04 04:34:00,20.8,17.3,30.08,NW,309,2.0,4.0,86,0.00,,,0.00,HR-IXPWINDi_r2_v1.2.,2013-03-04 09:34:00,
2013-03-04 04:39:00,20.8,17.6,30.08,NW,309,3.0,4.0,87,0.00,,,0.00,HR-IXPWINDi_r2_v1.2.,2013-03-04 09:39:00,
2013-03-04 04:44:00,20.8,17.3,30.08,NW,309,3.0,4.0,86,0.00,,,0.00,HR-IXPWINDi_r2_v1.2.,2013-03-04 09:44:00,
2013-03-04 04:49:00,20.9,17.4,30.08,NW,309,0.0,4.0,86,0.00,,,0.00,HR-IXPWINDi_r2_v1.2.,2013-03-04 09:49:00,
2013-03-04 04:55:00,20.9,17.4,30.08,NW,309,3.0,4.0,86,0.00,,,0.00,HR-IXPWINDi_r2_v1.2.,2013-03-04 09:55:00,
2013-03-04 05:00:00,20.9,17.4,30.08,NW,309,1.0,4.0,86,0.00,,,0.00,HR-IXPWINDi_r2_v1.2.,2013-03-04 10:00:00,
2013-03-04 05:05:00,20.8,17.3,30.08,NW,309,1.0,4.0,86,0.00,,,0.00,HR-IXPWINDi_r2_v1.2.,2013-03-04 10:05:00,
2013-03-04 05:10:00,20.6,17.1,30.08,NW,309,3.0,4.0,86,0.00,,,0.00,HR-IXPWINDi_r2_v1.2.,2013-03-04 10:10:00,
2013-03-04 05:15:00,20.5,17.0,30.08,NW,309,2.0,4.0,86,0.00,,,0.00,HR-IXPWINDi_r2_v1.2.,2013-03-04 10:15:00,
2013-03-04 05:20:00,20.3,16.8,30.09,NW,309,2.0,4.0,86,0.00,,,0.00,HR-IXPWINDi_r2_v1.2.,2013-03-04 10:20:00,
2013-03-04 05:26:00,20.1,16.6,30.08,NW,309,0.0,4.0,86,0.00,,,0.00,HR-IXPWINDi_r2_v1.2.,2013-03-04 10:26:00,
2013-03-04 05:31:00,19.9,16.4,30.08,NW,309,0.0,4.0,86,0.00,,,0.00,HR-IXPWINDi_r2_v1.2.,2013-03-04 10:31:00,
2013-03-04 05:36:00,19.6,16.1,30.09,NW,309,0.0,4.0,86,0.00,,,0.00,HR-IXPWINDi_r2_v1.2.,2013-03-04 10:36:00,
2013-03-04 05:41:00,19.3,16.1,30.09,NW,309,0.0,4.0,87,0.00,,,0.00,HR-IXPWINDi_r2_v1.2.,2013-03-04 10:41:00,
2013-03-04 05:47:00,19.1,15.9,30.09,NW,309,0.0,4.0,87,0.00,,,0.00,HR-IXPWINDi_r2_v1.2.,2013-03-04 10:47:00,
2013-03-04 05:52:00,18.9,16.0,30.09,NW,309,1.0,3.0,88,0.00,,,0.00,HR-IXPWINDi_r2_v1.2.,2013-03-04 10:52:00,
2013-03-04 05:57:00,18.7,15.8,30.10,NW,309,0.0,3.0,88,0.00,,,0.00,HR-IXPWINDi_r2_v1.2.,2013-03-04 10:57:00,
2013-03-04 06:02:00,18.5,15.8,30.10,NW,309,1.0,3.0,89,0.00,,,0.00,HR-IXPWINDi_r2_v1.2.,2013-03-04 11:02:00,
2013-03-04 06:07:00,18.4,15.7,30.10,NW,309,1.0,4.0,89,0.00,,,0.00,HR-IXPWINDi_r2_v1.2.,2013-03-04 11:07:00,
2013-03-04 06:12:00,18.1,15.4,30.10,NW,309,0.0,4.0,89,0.00,,,0.00,HR-IXPWINDi_r2_v1.2.,2013-03-04 11:12:00,
2013-03-04 06:17:00,18.0,15.6,30.10,NW,309,2.0,3.0,90,0.00,,,0.00,HR-IXPWINDi_r2_v1.2.,2013-03-04 11:17:00,
2013-03-04 06:23:00,17.9,15.5,30.10,NW,309,0.0,3.0,90,0.00,,,0.00,HR-IXPWINDi_r2_v1.2.,2013-03-04 11:23:00,
2013-03-04 06:28:00,17.8,15.4,30.11,NW,309,0.0,3.0,90,0.00,,,0.00,HR-IXPWINDi_r2_v1.2.,2013-03-04 11:28:00,
2013-03-04 06:33:00,17.9,15.7,30.11,NW,309,0.0,3.0,91,0.00,,,0.00,HR-IXPWINDi_r2_v1.2.,2013-03-04 11:33:00,
2013-03-04 06:38:00,18.0,15.8,30.11,NW,309,1.0,3.0,91,0.00,,,0.00,HR-IXPWINDi_r2_v1.2.,2013-03-04 11:38:00,
2013-03-04 06:43:00,18.4,16.2,30.12,NW,309,4.0,5.0,91,0.00,,,0.00,HR-IXPWINDi_r2_v1.2.,2013-03-04 11:43:00,
2013-03-04 06:48:00,18.7,16.5,30.12,NW,309,2.0,5.0,91,0.00,,,0.00,HR-IXPWINDi_r2_v1.2.,2013-03-04 11:48:00,
2013-03-04 06:53:00,18.9,17.0,30.12,WNW,301,4.0,6.0,92,0.00,,,0.00,HR-IXPWINDi_r2_v1.2.,2013-03-04 11:53:00,
2013-03-04 06:59:00,19.1,17.2,30.12,WNW,300,3.0,6.0,92,0.00,,,0.00,HR-IXPWINDi_r2_v1.2.,2013-03-04 11:59:00,
2013-03-04 07:04:00,19.2,17.0,30.12,WNW,300,2.0,5.0,91,0.00,,,0.00,HR-IXPWINDi_r2_v1.2.,2013-03-04 12:04:00,
2013-03-04 07:09:00,19.4,17.2,30.13,WNW,295,5.0,6.0,91,0.00,,,0.00,HR-IXPWINDi_r2_v1.2.,2013-03-04 12:09:00,
2013-03-04 07:14:00,19.7,17.8,30.13,WNW,292,8.0,8.0,92,0.00,,,0.00,HR-IXPWINDi_r2_v1.2.,2013-03-04 12:14:00,
2013-03-04 07:19:00,20.1,18.2,30.13,WNW,290,6.0,8.0,92,0.00,,,0.00,HR-IXPWINDi_r2_v1.2.,2013-03-04 12:19:00,
2013-03-04 07:24:00,20.5,18.6,30.13,West,281,7.0,11.0,92,0.00,,,0.00,HR-IXPWINDi_r2_v1.2.,2013-03-04 12:24:00,
2013-03-04 07:30:00,20.8,18.6,30.13,West,279,6.0,11.0,91,0.00,,,0.00,HR-IXPWINDi_r2_v1.2.,2013-03-04 12:30:00,
2013-03-04 07:35:00,20.9,18.7,30.13,West,277,7.0,11.0,91,0.00,,,0.00,HR-IXPWINDi_r2_v1.2.,2013-03-04 12:35:00,
2013-03-04 07:40:00,21.1,18.9,30.13,WNW,283,5.0,11.0,91,0.00,,,0.00,HR-IXPWINDi_r2_v1.2.,2013-03-04 12:40:00,
2013-03-04 07:45:00,21.1,18.6,30.13,West,281,5.0,9.0,90,0.00,,,0.00,HR-IXPWINDi_r2_v1.2.,2013-03-04 12:45:00,
2013-03-04 07:51:00,21.2,18.7,30.13,West,278,6.0,9.0,90,0.00,,,0.00,HR-IXPWINDi_r2_v1.2.,2013-03-04 12:51:00,
2013-03-04 07:56:00,21.2,18.7,30.13,WNW,287,7.0,8.0,90,0.00,,,0.00,HR-IXPWINDi_r2_v1.2.,2013-03-04 12:56:00,
2013-03-04 08:01:00,21.2,18.5,30.13,West,280,4.0,8.0,89,0.00,,,0.00,HR-IXPWINDi_r2_v1.2.,2013-03-04 13:01:00,
2013-03-04 08:06:00,21.2,18.5,30.14,West,279,5.0,8.0,89,0.00,,,0.00,HR-IXPWINDi_r2_v1.2.,2013-03-04 13:06:00,
2013-03-04 08:11:00,21.1,18.4,30.14,West,279,4.0,7.0,89,0.00,,,0.00,HR-IXPWINDi_r2_v1.2.,2013-03-04 13:11:00,
2013-03-04 08:17:00,21.0,18.3,30.14,West,279,6.0,7.0,89,0.00,,,0.00,HR-IXPWINDi_r2_v1.2.,2013-03-04 13:17:00,
2013-03-04 08:22:00,21.0,18.3,30.14,West,279,3.0,7.0,89,0.00,,,0.00,HR-IXPWINDi_r2_v1.2.,2013-03-04 13:22:00,
2013-03-04 08:27:00,21.2,18.2,30.14,West,279,3.0,6.0,88,0.00,,,0.00,HR-IXPWINDi_r2_v1.2.,2013-03-04 13:27:00,
2013-03-04 08:32:00,21.3,18.3,30.14,West,279,3.0,5.0,88,0.00,,,0.00,HR-IXPWINDi_r2_v1.2.,2013-03-04 13:32:00,
2013-03-04 08:37:00,21.5,18.5,30.14,West,279,3.0,6.0,88,0.00,,,0.00,HR-IXPWINDi_r2_v1.2.,2013-03-04 13:37:00,
2013-03-04 08:42:00,21.7,18.7,30.14,West,279,3.0,6.0,88,0.00,,,0.00,HR-IXPWINDi_r2_v1.2.,2013-03-04 13:42:00,
2013-03-04 08:48:00,21.9,18.6,30.14,West,279,6.0,7.0,87,0.00,,,0.00,HR-IXPWINDi_r2_v1.2.,2013-03-04 13:48:00,
2013-03-04 08:53:00,22.1,18.6,30.14,WNW,288,5.0,7.0,86,0.00,,,0.00,HR-IXPWINDi_r2_v1.2.,2013-03-04 13:53:00,
2013-03-04 08:58:00,22.4,18.9,30.14,WNW,287,4.0,7.0,86,0.00,,,0.00,HR-IXPWINDi_r2_v1.2.,2013-03-04 13:58:00,
2013-03-04 09:03:00,22.7,19.2,30.14,WNW,288,5.0,8.0,86,0.00,,,0.00,HR-IXPWINDi_r2_v1.2.,2013-03-04 14:03:00,
2013-03-04 09:09:00,23.0,18.9,30.13,WNW,285,6.0,8.0,84,0.00,,,0.00,HR-IXPWINDi_r2_v1.2.,2013-03-04 14:09:00,
2013-03-04 09:14:00,23.1,18.7,30.13,WNW,286,3.0,7.0,83,0.00,,,0.00,HR-IXPWINDi_r2_v1.2.,2013-03-04 14:14:00,
2013-03-04 09:19:00,23.4,18.7,30.13,West,273,7.0,7.0,82,0.00,,,0.00,HR-IXPWINDi_r2_v1.2.,2013-03-04 14:19:00,
2013-03-04 09:25:00,23.6,18.9,30.14,West,279,5.0,8.0,82,0.00,,,0.00,HR-IXPWINDi_r2_v1.2.,2013-03-04 14:25:00,
2013-03-04 09:30:00,23.9,18.9,30.14,West,277,6.0,8.0,81,0.00,,,0.00,HR-IXPWINDi_r2_v1.2.,2013-03-04 14:30:00,
2013-03-04 09:35:00,24.1,19.1,30.14,West,269,6.0,9.0,81,0.00,,,0.00,HR-IXPWINDi_r2_v1.2.,2013-03-04 14:35:00,
2013-03-04 09:40:00,24.3,19.0,30.14,West,267,5.0,9.0,80,0.00,,,0.00,HR-IXPWINDi_r2_v1.2.,2013-03-04 14:40:00,
2013-03-04 09:45:00,24.4,19.1,30.14,West,269,5.0,10.0,80,0.00,,,0.00,HR-IXPWINDi_r2_v1.2.,2013-03-04 14:45:00,
2013-03-04 09:51:00,24.7,19.4,30.14,WNW,285,9.0,10.0,80,0.00,,,0.00,HR-IXPWINDi_r2_v1.2.,2013-03-04 14:51:00,
2013-03-04 09:56:00,24.9,19.0,30.14,WNW,290,7.0,10.0,78,0.00,,,0.00,HR-IXPWINDi_r2_v1.2.,2013-03-04 14:56:00,
2013-03-04 10:01:00,25.2,19.3,30.14,WNW,282,5.0,10.0,78,0.00,,,0.00,HR-IXPWINDi_r2_v1.2.,2013-03-04 15:01:00,
2013-03-04 10:07:00,25.4,19.8,30.15,WNW,284,6.0,11.0,79,0.00,,,0.00,HR-IXPWINDi_r2_v1.2.,2013-03-04 15:07:00,
2013-03-04 10:12:00,25.6,19.4,30.15,WNW,300,5.0,12.0,77,0.00,,,0.00,HR-IXPWINDi_r2_v1.2.,2013-03-04 15:12:00,
2013-03-04 10:17:00,25.9,19.7,30.15,NW,309,7.0,12.0,77,0.00,,,0.00,HR-IXPWINDi_r2_v1.2.,2013-03-04 15:17:00,
2013-03-04 10:23:00,26.1,19.3,30.14,NW,304,6.0,14.0,75,0.00,,,0.00,HR-IXPWINDi_r2_v1.2.,2013-03-04 15:23:00,
2013-03-04 10:28:00,26.0,19.5,30.14,WNW,296,5.0,14.0,76,0.00,,,0.00,HR-IXPWINDi_r2_v1.2.,2013-03-04 15:28:00,
2013-03-04 10:33:00,26.2,19.7,30.14,West,279,11.0,15.0,76,0.00,,,0.00,HR-IXPWINDi_r2_v1.2.,2013-03-04 15:33:00,
2013-03-04 10:38:00,25.9,18.8,30.14,WNW,300,7.0,15.0,74,0.00,,,0.00,HR-IXPWINDi_r2_v1.2.,2013-03-04 15:38:00,
2013-03-04 10:44:00,26.4,19.6,30.14,NW,305,6.0,15.0,75,0.00,,,0.00,HR-IXPWINDi_r2_v1.2.,2013-03-04 15:44:00,
2013-03-04 10:49:00,26.8,20.0,30.14,WNW,290,11.0,14.0,75,0.00,,,0.00,HR-IXPWINDi_r2_v1.2.,2013-03-04 15:49:00,
2013-03-04 10:54:00,26.7,19.5,30.14,NW,304,8.0,13.0,74,0.00,,,0.00,HR-IXPWINDi_r2_v1.2.,2013-03-04 15:54:00,
2013-03-04 10:59:00,27.0,20.1,30.14,WNW,288,9.0,13.0,75,0.00,,,0.00,HR-IXPWINDi_r2_v1.2.,2013-03-04 15:59:00,
2013-03-04 11:04:00,27.4,20.5,30.14,WNW,295,11.0,14.0,75,0.00,,,0.00,HR-IXPWINDi_r2_v1.2.,2013-03-04 16:04:00,
2013-03-04 11:09:00,27.4,20.2,30.14,WNW,294,11.0,15.0,74,0.00,,,0.00,HR-IXPWINDi_r2_v1.2.,2013-03-04 16:09:00,
2013-03-04 11:15:00,27.2,19.7,30.14,NW,313,10.0,16.0,73,0.00,,,0.00,HR-IXPWINDi_r2_v1.2.,2013-03-04 16:15:00,
2013-03-04 11:20:00,27.1,19.9,30.14,WNW,288,9.0,16.0,74,0.00,,,0.00,HR-IXPWINDi_r2_v1.2.,2013-03-04 16:20:00,
2013-03-04 11:25:00,27.4,19.9,30.13,WNW,293,8.0,14.0,73,0.00,,,0.00,HR-IXPWINDi_r2_v1.2.,2013-03-04 16:25:00,
2013-03-04 11:30:00,27.8,20.3,30.13,West,279,7.0,15.0,73,0.00,,,0.00,HR-IXPWINDi_r2_v1.2.,2013-03-04 16:30:00,
2013-03-04 11:36:00,28.2,21.6,30.13,WNW,292,6.0,15.0,76,0.00,,,0.00,HR-IXPWINDi_r2_v1.2.,2013-03-04 16:36:00,
2013-03-04 11:41:00,28.7,22.1,30.13,WNW,301,10.0,13.0,76,0.00,,,0.00,HR-IXPWINDi_r2_v1.2.,2013-03-04 16:41:00,
2013-03-04 11:46:00,28.9,22.3,30.13,WNW,298,9.0,16.0,76,0.00,,,0.00,HR-IXPWINDi_r2_v1.2.,2013-03-04 16:46:00,
2013-03-04 11:51:00,29.0,21.4,30.13,WNW,289,11.0,16.0,73,0.00,,,0.00,HR-IXPWINDi_r2_v1.2.,2013-03-04 16:51:00,
2013-03-04 11:56:00,28.8,20.9,30.13,West,270,6.0,16.0,72,0.00,,,0.00,HR-IXPWINDi_r2_v1.2.,2013-03-04 16:56:00,
2013-03-04 12:01:00,28.9,21.0,30.13,West,281,11.0,15.0,72,0.00,,,0.00,HR-IXPWINDi_r2_v1.2.,2013-03-04 17:01:00,
2013-03-04 12:07:00,29.0,21.4,30.13,WSW,258,11.0,15.0,73,0.00,,,0.00,HR-IXPWINDi_r2_v1.2.,2013-03-04 17:07:00,
2013-03-04 12:12:00,29.3,22.0,30.13,WNW,292,8.0,14.0,74,0.00,,,0.00,HR-IXPWINDi_r2_v1.2.,2013-03-04 17:12:00,
2013-03-04 12:17:00,29.7,22.4,30.13,WNW,302,13.0,14.0,74,0.00,,,0.00,HR-IXPWINDi_r2_v1.2.,2013-03-04 17:17:00,
2013-03-04 12:23:00,30.0,23.0,30.13,WNW,293,8.0,15.0,75,0.00,,,0.00,HR-IXPWINDi_r2_v1.2.,2013-03-04 17:23:00,
2013-03-04 12:28:00,30.3,22.4,30.13,WNW,290,8.0,15.0,72,0.00,,,0.00,HR-IXPWINDi_r2_v1.2.,2013-03-04 17:28:00,
2013-03-04 12:33:00,30.1,21.2,30.13,NW,309,10.0,14.0,69,0.00,,,0.00,HR-IXPWINDi_r2_v1.2.,2013-03-04 17:33:00,
2013-03-04 12:38:00,29.7,21.1,30.13,NW,311,8.0,14.0,70,0.00,,,0.00,HR-IXPWINDi_r2_v1.2.,2013-03-04 17:38:00,
2013-03-04 12:43:00,30.0,21.4,30.12,WNW,298,8.0,13.0,70,0.00,,,0.00,HR-IXPWINDi_r2_v1.2.,2013-03-04 17:43:00,
2013-03-04 12:48:00,30.3,22.0,30.12,NW,309,6.0,15.0,71,0.00,,,0.00,HR-IXPWINDi_r2_v1.2.,2013-03-04 17:48:00,
2013-03-04 12:54:00,30.6,22.3,30.12,WNW,298,4.0,15.0,71,0.00,,,0.00,HR-IXPWINDi_r2_v1.2.,2013-03-04 17:54:00,
2013-03-04 12:59:00,31.1,22.8,30.12,WNW,299,9.0,14.0,71,0.00,,,0.00,HR-IXPWINDi_r2_v1.2.,2013-03-04 17:59:00,
2013-03-04 13:04:00,31.0,22.0,30.11,West,273,12.0,14.0,69,0.00,,,0.00,HR-IXPWINDi_r2_v1.2.,2013-03-04 18:04:00,
2013-03-04 13:09:00,30.8,20.8,30.11,WNW,292,9.0,15.0,66,0.00,,,0.00,HR-IXPWINDi_r2_v1.2.,2013-03-04 18:09:00,
2013-03-04 13:15:00,30.6,21.0,30.11,WNW,285,9.0,15.0,67,0.00,,,0.00,HR-IXPWINDi_r2_v1.2.,2013-03-04 18:15:00,
2013-03-04 13:20:00,31.0,22.4,30.11,WNW,292,7.0,12.0,70,0.00,,,0.00,HR-IXPWINDi_r2_v1.2.,2013-03-04 18:20:00,
2013-03-04 13:25:00,30.9,20.9,30.11,West,278,10.0,14.0,66,0.00,,,0.00,HR-IXPWINDi_r2_v1.2.,2013-03-04 18:25:00,
2013-03-04 13:29:00,30.7,21.0,30.11,NW,321,3.0,14.0,67,0.00,,,0.00,HR-IXPWINDi_r2_v1.2.,2013-03-04 18:29:00,
2013-03-04 13:34:00,31.0,21.0,30.10,NW,314,11.0,16.0,66,0.00,,,0.00,HR-IXPWINDi_r2_v1.2.,2013-03-04 18:34:00,
2013-03-04 13:39:00,31.1,21.8,30.10,NW,312,11.0,16.0,68,0.00,,,0.00,HR-IXPWINDi_r2_v1.2.,2013-03-04 18:39:00,
2013-03-04 13:44:00,31.5,22.2,30.10,WNW,300,8.0,15.0,68,0.00,,,0.00,HR-IXPWINDi_r2_v1.2.,2013-03-04 18:44:00,
2013-03-04 13:49:00,31.9,22.2,30.10,NW,306,7.0,13.0,67,0.00,,,0.00,HR-IXPWINDi_r2_v1.2.,2013-03-04 18:49:00,
2013-03-04 13:55:00,31.9,22.2,30.10,WNW,290,5.0,13.0,67,0.00,,,0.00,HR-IXPWINDi_r2_v1.2.,2013-03-04 18:55:00,
2013-03-04 14:00:00,32.2,22.1,30.09,WSW,255,5.0,12.0,66,0.00,,,0.00,HR-IXPWINDi_r2_v1.2.,2013-03-04 19:00:00,
2013-03-04 14:05:00,32.3,22.9,30.09,West,277,9.0,12.0,68,0.00,,,0.00,HR-IXPWINDi_r2_v1.2.,2013-03-04 19:05:00,
2013-03-04 14:10:00,32.3,22.6,30.09,WNW,301,8.0,12.0,67,0.00,,,0.00,HR-IXPWINDi_r2_v1.2.,2013-03-04 19:10:00,
2013-03-04 14:16:00,32.6,22.9,30.09,WNW,300,5.0,14.0,67,0.00,,,0.00,HR-IXPWINDi_r2_v1.2.,2013-03-04 19:16:00,
2013-03-04 14:21:00,32.1,21.7,30.09,WNW,286,6.0,14.0,65,0.00,,,0.00,HR-IXPWINDi_r2_v1.2.,2013-03-04 19:21:00,
2013-03-04 14:26:00,32.1,22.4,30.09,WNW,286,5.0,11.0,67,0.00,,,0.00,HR-IXPWINDi_r2_v1.2.,2013-03-04 19:26:00,
2013-03-04 14:31:00,32.6,22.1,30.09,WNW,289,7.0,14.0,65,0.00,,,0.00,HR-IXPWINDi_r2_v1.2.,2013-03-04 19:31:00,
2013-03-04 14:36:00,32.6,22.5,30.09,WNW,294,13.0,15.0,66,0.00,,,0.00,HR-IXPWINDi_r2_v1.2.,2013-03-04 19:36:00,
2013-03-04 14:42:00,32.9,22.4,30.09,West,268,10.0,15.0,65,0.00,,,0.00,HR-IXPWINDi_r2_v1.2.,2013-03-04 19:42:00,
2013-03-04 14:47:00,32.8,22.3,30.09,WNW,287,8.0,14.0,65,0.00,,,0.00,HR-IXPWINDi_r2_v1.2.,2013-03-04 19:47:00,
2013-03-04 14:52:00,32.8,22.0,30.10,NW,316,5.0,12.0,64,0.00,,,0.00,HR-IXPWINDi_r2_v1.2.,2013-03-04 19:52:00,
2013-03-04 14:57:00,32.9,22.1,30.09,WNW,295,7.0,12.0,64,0.00,,,0.00,HR-IXPWINDi_r2_v1.2.,2013-03-04 19:57:00,
2013-03-04 15:03:00,33.1,21.9,30.09,WNW,284,6.0,12.0,63,0.00,,,0.00,HR-IXPWINDi_r2_v1.2.,2013-03-04 20:03:00,
2013-03-04 15:08:00,33.3,22.8,30.09,WNW,290,6.0,12.0,65,0.00,,,0.00,HR-IXPWINDi_r2_v1.2.,2013-03-04 20:08:00,
2013-03-04 15:13:00,33.3,22.1,30.09,West,279,8.0,12.0,63,0.00,,,0.00,HR-IXPWINDi_r2_v1.2.,2013-03-04 20:13:00,
2013-03-04 15:18:00,33.8,23.3,30.09,NW,309,7.0,12.0,65,0.00,,,0.00,HR-IXPWINDi_r2_v1.2.,2013-03-04 20:18:00,
2013-03-04 15:23:00,33.7,22.1,30.09,WNW,293,9.0,11.0,62,0.00,,,0.00,HR-IXPWINDi_r2_v1.2.,2013-03-04 20:23:00,
2013-03-04 15:29:00,33.7,21.7,30.09,West,280,7.0,11.0,61,0.00,,,0.00,HR-IXPWINDi_r2_v1.2.,2013-03-04 20:29:00,
2013-03-04 15:34:00,33.8,22.2,30.09,WNW,298,10.0,12.0,62,0.00,,,0.00,HR-IXPWINDi_r2_v1.2.,2013-03-04 20:34:00,
2013-03-04 15:39:00,34.0,22.0,30.09,West,259,10.0,13.0,61,0.00,,,0.00,HR-IXPWINDi_r2_v1.2.,2013-03-04 20:39:00,
2013-03-04 15:45:00,33.9,21.9,30.08,West,279,6.0,13.0,61,0.00,,,0.00,HR-IXPWINDi_r2_v1.2.,2013-03-04 20:45:00,
2013-03-04 15:50:00,33.9,22.3,30.08,WNW,283,6.0,12.0,62,0.00,,,0.00,HR-IXPWINDi_r2_v1.2.,2013-03-04 20:50:00,
2013-03-04 15:55:00,34.2,22.2,30.08,West,275,10.0,12.0,61,0.00,,,0.00,HR-IXPWINDi_r2_v1.2.,2013-03-04 20:55:00,
2013-03-04 16:00:00,34.2,22.2,30.08,West,279,7.0,11.0,61,0.00,,,0.00,HR-IXPWINDi_r2_v1.2.,2013-03-04 21:00:00,
2013-03-04 16:05:00,34.2,22.2,30.08,WNW,286,4.0,11.0,61,0.00,,,0.00,HR-IXPWINDi_r2_v1.2.,2013-03-04 21:05:00,
2013-03-04 16:11:00,34.6,22.9,30.08,NW,306,5.0,9.0,62,0.00,,,0.00,HR-IXPWINDi_r2_v1.2.,2013-03-04 21:11:00,
2013-03-04 16:16:00,34.6,22.1,30.08,West,261,4.0,8.0,60,0.00,,,0.00,HR-IXPWINDi_r2_v1.2.,2013-03-04 21:16:00,
2013-03-04 16:21:00,34.4,22.0,30.08,NW,309,8.0,9.0,60,0.00,,,0.00,HR-IXPWINDi_r2_v1.2.,2013-03-04 21:21:00,
2013-03-04 16:26:00,34.2,22.2,30.08,WNW,296,5.0,9.0,61,0.00,,,0.00,HR-IXPWINDi_r2_v1.2.,2013-03-04 21:26:00,
2013-03-04 16:32:00,34.3,22.2,30.08,WNW,294,9.0,10.0,61,0.00,,,0.00,HR-IXPWINDi_r2_v1.2.,2013-03-04 21:32:00,
2013-03-04 16:37:00,34.3,22.2,30.08,WNW,300,2.0,10.0,61,0.00,,,0.00,HR-IXPWINDi_r2_v1.2.,2013-03-04 21:37:00,
2013-03-04 16:42:00,34.7,22.2,30.08,WNW,291,6.0,9.0,60,0.00,,,0.00,HR-IXPWINDi_r2_v1.2.,2013-03-04 21:42:00,
2013-03-04 16:48:00,34.8,22.3,30.08,WNW,289,6.0,10.0,60,0.00,,,0.00,HR-IXPWINDi_r2_v1.2.,2013-03-04 21:48:00,
2013-03-04 16:53:00,34.5,22.0,30.08,WNW,283,4.0,11.0,60,0.00,,,0.00,HR-IXPWINDi_r2_v1.2.,2013-03-04 21:53:00,
2013-03-04 16:58:00,34.6,22.1,30.08,NW,304,5.0,11.0,60,0.00,,,0.00,HR-IXPWINDi_r2_v1.2.,2013-03-04 21:58:00,
2013-03-04 17:03:00,34.6,21.3,30.08,WNW,292,9.0,10.0,58,0.00,,,0.00,HR-IXPWINDi_r2_v1.2.,2013-03-04 22:03:00,
2013-03-04 17:08:00,34.4,21.2,30.08,WNW,296,4.0,10.0,58,0.00,,,0.00,HR-IXPWINDi_r2_v1.2.,2013-03-04 22:08:00,
2013-03-04 17:14:00,34.4,22.0,30.08,NW,306,4.0,9.0,60,0.00,,,0.00,HR-IXPWINDi_r2_v1.2.,2013-03-04 22:14:00,
2013-03-04 17:19:00,34.3,21.9,30.08,West,277,5.0,9.0,60,0.00,,,0.00,HR-IXPWINDi_r2_v1.2.,2013-03-04 22:19:00,
2013-03-04 17:24:00,34.3,21.5,30.08,WNW,302,4.0,9.0,59,0.00,,,0.00,HR-IXPWINDi_r2_v1.2.,2013-03-04 22:24:00,
2013-03-04 17:29:00,34.2,21.4,30.08,WNW,286,6.0,10.0,59,0.00,,,0.00,HR-IXPWINDi_r2_v1.2.,2013-03-04 22:29:00,
2013-03-04 17:34:00,34.1,21.3,30.08,WNW,302,5.0,10.0,59,0.00,,,0.00,HR-IXPWINDi_r2_v1.2.,2013-03-04 22:34:00,
2013-03-04 17:40:00,33.8,22.5,30.08,WNW,292,5.0,10.0,63,0.00,,,0.00,HR-IXPWINDi_r2_v1.2.,2013-03-04 22:40:00,
2013-03-04 17:45:00,33.7,21.3,30.09,WNW,300,4.0,10.0,60,0.00,,,0.00,HR-IXPWINDi_r2_v1.2.,2013-03-04 22:45:00,
2013-03-04 17:50:00,33.6,22.0,30.09,WNW,300,5.0,7.0,62,0.00,,,0.01,HR-IXPWINDi_r2_v1.2.,2013-03-04 22:50:00,
2013-03-04 17:55:00,33.4,21.0,30.09,WNW,301,4.0,7.0,60,0.00,,,0.01,HR-IXPWINDi_r2_v1.2.,2013-03-04 22:55:00,
2013-03-04 18:01:00,33.2,20.4,30.09,WNW,301,5.0,7.0,59,0.00,,,0.01,HR-IXPWINDi_r2_v1.2.,2013-03-04 23:01:00,
2013-03-04 18:06:00,33.0,20.6,30.09,WNW,301,2.0,7.0,60,0.00,,,0.01,HR-IXPWINDi_r2_v1.2.,2013-03-04 23:06:00,
2013-03-04 18:11:00,32.7,21.1,30.09,WNW,301,2.0,6.0,62,0.00,,,0.01,HR-IXPWINDi_r2_v1.2.,2013-03-04 23:11:00,
2013-03-04 18:16:00,32.5,20.9,30.09,WNW,301,3.0,6.0,62,0.00,,,0.01,HR-IXPWINDi_r2_v1.2.,2013-03-04 23:16:00,
2013-03-04 18:21:00,32.4,21.2,30.09,WNW,301,2.0,5.0,63,0.00,,,0.01,HR-IXPWINDi_r2_v1.2.,2013-03-04 23:21:00,
2013-03-04 18:26:00,32.1,21.3,30.09,WNW,301,2.0,5.0,64,0.00,,,0.01,HR-IXPWINDi_r2_v1.2.,2013-03-04 23:26:00,
2013-03-04 18:32:00,31.8,21.0,30.09,WNW,301,1.0,3.0,64,0.00,,,0.01,HR-IXPWINDi_r2_v1.2.,2013-03-04 23:32:00,
2013-03-04 18:37:00,31.6,21.2,30.09,WNW,301,0.0,3.0,65,0.00,,,0.01,HR-IXPWINDi_r2_v1.2.,2013-03-04 23:37:00,
2013-03-04 18:42:00,31.3,21.3,30.09,WNW,301,0.0,2.0,66,0.00,,,0.01,HR-IXPWINDi_r2_v1.2.,2013-03-04 23:42:00,
2013-03-04 18:47:00,31.0,21.0,30.09,WNW,301,0.0,0.0,66,0.00,,,0.01,HR-IXPWINDi_r2_v1.2.,2013-03-04 23:47:00,
2013-03-04 18:52:00,30.8,20.8,30.09,WNW,301,0.0,0.0,66,0.00,,,0.01,HR-IXPWINDi_r2_v1.2.,2013-03-04 23:52:00,
2013-03-04 18:57:00,30.6,20.6,30.09,WNW,301,0.0,0.0,66,0.00,,,0.01,HR-IXPWINDi_r2_v1.2.,2013-03-04 23:57:00,
2013-03-04 19:03:00,30.3,20.3,30.10,WNW,301,0.0,0.0,66,0.00,,,0.01,HR-IXPWINDi_r2_v1.2.,2013-03-05 00:03:00,
2013-03-04 19:08:00,29.9,20.3,30.10,WNW,301,0.0,0.0,67,0.00,,,0.01,HR-IXPWINDi_r2_v1.2.,2013-03-05 00:08:00,
2013-03-04 19:13:00,29.5,20.3,30.10,WNW,301,0.0,0.0,68,0.00,,,0.01,HR-IXPWINDi_r2_v1.2.,2013-03-05 00:13:00,
2013-03-04 19:18:00,29.4,20.8,30.10,WNW,301,0.0,0.0,70,0.00,,,0.01,HR-IXPWINDi_r2_v1.2.,2013-03-05 00:18:00,
2013-03-04 19:24:00,29.1,20.5,30.10,WNW,301,0.0,1.0,70,0.00,,,0.01,HR-IXPWINDi_r2_v1.2.,2013-03-05 00:24:00,
2013-03-04 19:29:00,28.8,20.9,30.10,WNW,301,0.0,1.0,72,0.00,,,0.01,HR-IXPWINDi_r2_v1.2.,2013-03-05 00:29:00,
2013-03-04 19:34:00,28.6,20.7,30.10,WNW,301,0.0,0.0,72,0.00,,,0.01,HR-IXPWINDi_r2_v1.2.,2013-03-05 00:34:00,
2013-03-04 19:39:00,28.4,20.5,30.10,WNW,301,0.0,0.0,72,0.00,,,0.01,HR-IXPWINDi_r2_v1.2.,2013-03-05 00:39:00,
2013-03-04 19:45:00,28.2,20.7,30.10,WNW,301,0.0,0.0,73,0.00,,,0.01,HR-IXPWINDi_r2_v1.2.,2013-03-05 00:45:00,
2013-03-04 19:50:00,27.9,20.7,30.10,WNW,301,0.0,0.0,74,0.00,,,0.01,HR-IXPWINDi_r2_v1.2.,2013-03-05 00:50:00,
2013-03-04 19:55:00,27.8,20.6,30.10,WNW,301,0.0,0.0,74,0.00,,,0.01,HR-IXPWINDi_r2_v1.2.,2013-03-05 00:55:00,
2013-03-04 20:00:00,27.6,20.7,30.10,WNW,301,0.0,0.0,75,0.00,,,0.01,HR-IXPWINDi_r2_v1.2.,2013-03-05 01:00:00,
2013-03-04 20:06:00,27.7,21.1,30.09,WNW,301,0.0,0.0,76,0.00,,,0.01,HR-IXPWINDi_r2_v1.2.,2013-03-05 01:06:00,
2013-03-04 20:11:00,27.7,20.8,30.09,WNW,301,0.0,0.0,75,0.00,,,0.01,HR-IXPWINDi_r2_v1.2.,2013-03-05 01:11:00,
2013-03-04 20:16:00,27.7,20.8,30.10,WNW,301,0.0,0.0,75,0.00,,,0.01,HR-IXPWINDi_r2_v1.2.,2013-03-05 01:16:00,
2013-03-04 20:21:00,27.6,21.0,30.10,NW,311,0.0,5.0,76,0.00,,,0.01,HR-IXPWINDi_r2_v1.2.,2013-03-05 01:21:00,
2013-03-04 20:27:00,27.9,21.0,30.10,NW,311,0.0,5.0,75,0.00,,,0.01,HR-IXPWINDi_r2_v1.2.,2013-03-05 01:27:00,
2013-03-04 20:32:00,28.0,21.4,30.10,NW,311,0.0,3.0,76,0.00,,,0.01,HR-IXPWINDi_r2_v1.2.,2013-03-05 01:32:00,
2013-03-04 20:37:00,27.9,21.3,30.10,NW,311,0.0,1.0,76,0.00,,,0.01,HR-IXPWINDi_r2_v1.2.,2013-03-05 01:37:00,
2013-03-04 20:42:00,27.9,21.3,30.10,NW,311,0.0,1.0,76,0.00,,,0.01,HR-IXPWINDi_r2_v1.2.,2013-03-05 01:42:00,
2013-03-04 20:48:00,27.8,21.2,30.09,NW,311,0.0,2.0,76,0.00,,,0.01,HR-IXPWINDi_r2_v1.2.,2013-03-05 01:48:00,
2013-03-04 20:53:00,27.7,21.4,30.09,NW,311,0.0,2.0,77,0.00,,,0.01,HR-IXPWINDi_r2_v1.2.,2013-03-05 01:53:00,
2013-03-04 20:58:00,27.6,21.3,30.09,NW,311,0.0,2.0,77,0.00,,,0.01,HR-IXPWINDi_r2_v1.2.,2013-03-05 01:58:00,
2013-03-04 21:03:00,27.4,21.1,30.09,NW,311,0.0,2.0,77,0.00,,,0.01,HR-IXPWINDi_r2_v1.2.,2013-03-05 02:03:00,
2013-03-04 21:08:00,27.4,20.8,30.09,NW,311,1.0,2.0,76,0.00,,,0.01,HR-IXPWINDi_r2_v1.2.,2013-03-05 02:08:00,
2013-03-04 21:14:00,27.5,20.6,30.09,NW,311,2.0,3.0,75,0.00,,,0.01,HR-IXPWINDi_r2_v1.2.,2013-03-05 02:14:00,
2013-03-04 21:19:00,27.6,20.4,30.09,NW,311,1.0,3.0,74,0.00,,,0.01,HR-IXPWINDi_r2_v1.2.,2013-03-05 02:19:00,
2013-03-04 21:24:00,27.6,20.4,30.10,NW,311,0.0,3.0,74,0.00,,,0.01,HR-IXPWINDi_r2_v1.2.,2013-03-05 02:24:00,
2013-03-04 21:29:00,27.5,20.6,30.10,NW,311,0.0,1.0,75,0.00,,,0.01,HR-IXPWINDi_r2_v1.2.,2013-03-05 02:29:00,
2013-03-04 21:35:00,27.3,20.1,30.10,NW,311,0.0,2.0,74,0.00,,,0.01,HR-IXPWINDi_r2_v1.2.,2013-03-05 02:35:00,
2013-03-04 21:40:00,27.2,19.7,30.10,NW,317,4.0,5.0,73,0.00,,,0.01,HR-IXPWINDi_r2_v1.2.,2013-03-05 02:40:00,
2013-03-04 21:45:00,27.3,19.2,30.10,NW,317,1.0,5.0,71,0.00,,,0.01,HR-IXPWINDi_r2_v1.2.,2013-03-05 02:45:00,
2013-03-04 21:50:00,27.2,19.1,30.10,NW,317,1.0,4.0,71,0.00,,,0.01,HR-IXPWINDi_r2_v1.2.,2013-03-05 02:50:00,
2013-03-04 21:55:00,27.1,18.6,30.10,NW,317,1.0,3.0,70,0.00,,,0.01,HR-IXPWINDi_r2_v1.2.,2013-03-05 02:55:00,
2013-03-04 22:01:00,27.0,18.9,30.10,NW,317,0.0,3.0,71,0.00,,,0.01,HR-IXPWINDi_r2_v1.2.,2013-03-05 03:01:00,
2013-03-04 22:06:00,26.9,18.8,30.10,NW,317,0.0,1.0,71,0.00,,,0.01,HR-IXPWINDi_r2_v1.2.,2013-03-05 03:06:00,
2013-03-04 22:11:00,26.7,19.2,30.10,NW,317,0.0,2.0,73,0.00,,,0.01,HR-IXPWINDi_r2_v1.2.,2013-03-05 03:11:00,
2013-03-04 22:17:00,26.6,19.1,30.10,NW,317,0.0,2.0,73,0.00,,,0.01,HR-IXPWINDi_r2_v1.2.,2013-03-05 03:17:00,
2013-03-04 22:22:00,26.3,19.2,30.10,NW,317,0.0,2.0,74,0.00,,,0.01,HR-IXPWINDi_r2_v1.2.,2013-03-05 03:22:00,
2013-03-04 22:27:00,26.1,19.6,30.10,NW,317,0.0,0.0,76,0.00,,,0.01,HR-IXPWINDi_r2_v1.2.,2013-03-05 03:27:00,
2013-03-04 22:32:00,25.9,19.4,30.10,NW,317,1.0,1.0,76,0.00,,,0.01,HR-IXPWINDi_r2_v1.2.,2013-03-05 03:32:00,
2013-03-04 22:38:00,25.8,18.7,30.10,NW,317,0.0,2.0,74,0.00,,,0.01,HR-IXPWINDi_r2_v1.2.,2013-03-05 03:38:00,
2013-03-04 22:43:00,26.0,18.6,30.10,NW,317,1.0,3.0,73,0.00,,,0.01,HR-IXPWINDi_r2_v1.2.,2013-03-05 03:43:00,
2013-03-04 22:48:00,26.0,18.6,30.10,NW,317,0.0,3.0,73,0.00,,,0.01,HR-IXPWINDi_r2_v1.2.,2013-03-05 03:48:00,
2013-03-04 22:53:00,26.0,18.2,30.10,NW,317,0.0,3.0,72,0.00,,,0.01,HR-IXPWINDi_r2_v1.2.,2013-03-05 03:53:00,
2013-03-04 22:59:00,26.0,18.2,30.10,NW,317,0.0,3.0,72,0.00,,,0.01,HR-IXPWINDi_r2_v1.2.,2013-03-05 03:59:00,
2013-03-04 23:04:00,26.0,18.2,30.10,NW,317,0.0,3.0,72,0.00,,,0.01,HR-IXPWINDi_r2_v1.2.,2013-03-05 04:04:00,
2013-03-04 23:09:00,25.9,19.1,30.10,NW,317,0.0,2.0,75,0.00,,,0.01,HR-IXPWINDi_r2_v1.2.,2013-03-05 04:09:00,
2013-03-04 23:14:00,25.7,18.9,30.10,NW,317,0.0,1.0,75,0.00,,,0.01,HR-IXPWINDi_r2_v1.2.,2013-03-05 04:14:00,
2013-03-04 23:19:00,25.4,18.6,30.10,NW,317,0.0,0.0,75,0.00,,,0.01,HR-IXPWINDi_r2_v1.2.,2013-03-05 04:19:00,
2013-03-04 23:24:00,25.3,18.8,30.10,NW,317,0.0,0.0,76,0.00,,,0.01,HR-IXPWINDi_r2_v1.2.,2013-03-05 04:24:00,
2013-03-04 23:30:00,25.0,18.2,30.10,NW,317,0.0,0.0,75,0.00,,,0.01,HR-IXPWINDi_r2_v1.2.,2013-03-05 04:30:00,
2013-03-04 23:35:00,24.8,18.0,30.10,NW,317,0.0,0.0,75,0.00,,,0.01,HR-IXPWINDi_r2_v1.2.,2013-03-05 04:35:00,
2013-03-04 23:40:00,24.6,17.8,30.10,NW,317,0.0,0.0,75,0.00,,,0.01,HR-IXPWINDi_r2_v1.2.,2013-03-05 04:40:00,
2013-03-04 23:45:00,24.3,17.5,30.10,NW,317,0.0,0.0,75,0.00,,,0.01,HR-IXPWINDi_r2_v1.2.,2013-03-05 04:45:00,
2013-03-04 23:50:00,23.9,17.5,30.10,NW,317,0.0,0.0,76,0.00,,,0.01,HR-IXPWINDi_r2_v1.2.,2013-03-05 04:50:00,
2013-03-04 23:55:00,23.6,17.2,30.10,NW,317,0.0,0.0,76,0.00,,,0.01,HR-IXPWINDi_r2_v1.2.,2013-03-05 04:55:00,